sensor_id;sensor_type;location;lat;lon;timestamp;P1;durP1;ratioP1;P2;durP2;ratioP2
29902;SDS011;30288;50.514;9.678;2023-04-21T00:00:10;37.97;;;24.02;;
29902;SDS011;30288;50.514;9.678;2023-04-21T00:02:16;41.58;;;23.25;;
29902;SDS011;30288;50.514;9.678;2023-04-21T00:04:22;38.60;;;23.38;;
29902;SDS011;30288;50.514;9.678;2023-04-21T00:06:28;36.20;;;22.88;;
29902;SDS011;30288;50.514;9.678;2023-04-21T00:08:35;38.17;;;25.00;;
29902;SDS011;30288;50.514;9.678;2023-04-21T00:10:41;40.95;;;25.65;;
29902;SDS011;30288;50.514;9.678;2023-04-21T00:12:47;36.38;;;25.85;;
29902;SDS011;30288;50.514;9.678;2023-04-21T00:14:52;37.05;;;23.60;;
29902;SDS011;30288;50.514;9.678;2023-04-21T00:16:57;41.33;;;27.75;;
29902;SDS011;30288;50.514;9.678;2023-04-21T00:19:02;36.88;;;25.25;;
29902;SDS011;30288;50.514;9.678;2023-04-21T00:21:08;37.85;;;24.77;;
29902;SDS011;30288;50.514;9.678;2023-04-21T00:23:14;35.35;;;22.95;;
29902;SDS011;30288;50.514;9.678;2023-04-21T00:25:22;36.83;;;24.10;;
29902;SDS011;30288;50.514;9.678;2023-04-21T00:27:27;35.03;;;22.45;;
29902;SDS011;30288;50.514;9.678;2023-04-21T00:29:32;40.58;;;26.20;;
29902;SDS011;30288;50.514;9.678;2023-04-21T00:31:37;38.33;;;24.33;;
29902;SDS011;30288;50.514;9.678;2023-04-21T00:33:43;36.28;;;23.40;;
29902;SDS011;30288;50.514;9.678;2023-04-21T00:35:48;37.20;;;22.90;;
29902;SDS011;30288;50.514;9.678;2023-04-21T00:37:55;34.83;;;23.30;;
29902;SDS011;30288;50.514;9.678;2023-04-21T00:40:00;38.35;;;24.10;;
29902;SDS011;30288;50.514;9.678;2023-04-21T00:42:08;36.30;;;22.85;;
29902;SDS011;30288;50.514;9.678;2023-04-21T00:44:13;36.55;;;22.98;;
29902;SDS011;30288;50.514;9.678;2023-04-21T00:46:18;37.08;;;23.25;;
29902;SDS011;30288;50.514;9.678;2023-04-21T00:48:24;40.30;;;25.35;;
29902;SDS011;30288;50.514;9.678;2023-04-21T00:50:29;36.00;;;22.88;;
29902;SDS011;30288;50.514;9.678;2023-04-21T00:52:35;42.08;;;25.48;;
29902;SDS011;30288;50.514;9.678;2023-04-21T00:54:42;35.30;;;23.27;;
29902;SDS011;30288;50.514;9.678;2023-04-21T00:56:48;38.08;;;24.25;;
29902;SDS011;30288;50.514;9.678;2023-04-21T00:58:57;38.63;;;23.48;;
29902;SDS011;30288;50.514;9.678;2023-04-21T01:01:03;39.80;;;23.38;;
29902;SDS011;30288;50.514;9.678;2023-04-21T01:03:09;38.92;;;23.38;;
29902;SDS011;30288;50.514;9.678;2023-04-21T01:05:15;38.92;;;24.60;;
29902;SDS011;30288;50.514;9.678;2023-04-21T01:07:21;40.42;;;24.25;;
29902;SDS011;30288;50.514;9.678;2023-04-21T01:09:29;38.55;;;24.25;;
29902;SDS011;30288;50.514;9.678;2023-04-21T01:11:37;37.10;;;24.13;;
29902;SDS011;30288;50.514;9.678;2023-04-21T01:13:43;36.45;;;22.52;;
29902;SDS011;30288;50.514;9.678;2023-04-21T01:15:50;36.75;;;24.05;;
29902;SDS011;30288;50.514;9.678;2023-04-21T01:17:56;35.67;;;23.15;;
29902;SDS011;30288;50.514;9.678;2023-04-21T01:20:01;44.80;;;23.90;;
29902;SDS011;30288;50.514;9.678;2023-04-21T01:22:15;34.63;;;21.88;;
29902;SDS011;30288;50.514;9.678;2023-04-21T01:24:21;40.92;;;25.10;;
29902;SDS011;30288;50.514;9.678;2023-04-21T01:26:27;36.03;;;24.13;;
29902;SDS011;30288;50.514;9.678;2023-04-21T01:28:32;40.28;;;24.88;;
29902;SDS011;30288;50.514;9.678;2023-04-21T01:30:38;38.40;;;23.27;;
29902;SDS011;30288;50.514;9.678;2023-04-21T01:32:43;39.83;;;25.23;;
29902;SDS011;30288;50.514;9.678;2023-04-21T01:34:48;38.35;;;24.65;;
29902;SDS011;30288;50.514;9.678;2023-04-21T01:36:54;39.28;;;25.02;;
29902;SDS011;30288;50.514;9.678;2023-04-21T01:39:02;37.92;;;25.25;;
29902;SDS011;30288;50.514;9.678;2023-04-21T01:41:08;36.58;;;23.83;;
29902;SDS011;30288;50.514;9.678;2023-04-21T01:43:13;35.63;;;22.90;;
29902;SDS011;30288;50.514;9.678;2023-04-21T01:45:19;37.30;;;24.55;;
29902;SDS011;30288;50.514;9.678;2023-04-21T01:47:25;38.63;;;24.75;;
29902;SDS011;30288;50.514;9.678;2023-04-21T01:49:30;34.80;;;22.77;;
29902;SDS011;30288;50.514;9.678;2023-04-21T01:51:36;39.30;;;25.15;;
29902;SDS011;30288;50.514;9.678;2023-04-21T01:53:41;38.08;;;23.75;;
29902;SDS011;30288;50.514;9.678;2023-04-21T01:55:49;36.08;;;23.40;;
29902;SDS011;30288;50.514;9.678;2023-04-21T01:57:54;42.13;;;25.17;;
29902;SDS011;30288;50.514;9.678;2023-04-21T02:00:00;37.10;;;24.27;;
29902;SDS011;30288;50.514;9.678;2023-04-21T02:02:15;36.83;;;24.25;;
29902;SDS011;30288;50.514;9.678;2023-04-21T02:04:20;36.40;;;23.35;;
29902;SDS011;30288;50.514;9.678;2023-04-21T02:06:25;42.28;;;24.50;;
29902;SDS011;30288;50.514;9.678;2023-04-21T02:08:32;34.90;;;23.60;;
29902;SDS011;30288;50.514;9.678;2023-04-21T02:10:38;40.15;;;24.48;;
29902;SDS011;30288;50.514;9.678;2023-04-21T02:12:48;40.92;;;25.98;;
29902;SDS011;30288;50.514;9.678;2023-04-21T02:14:53;38.03;;;23.17;;
29902;SDS011;30288;50.514;9.678;2023-04-21T02:16:58;37.25;;;23.38;;
29902;SDS011;30288;50.514;9.678;2023-04-21T02:19:04;36.58;;;23.17;;
29902;SDS011;30288;50.514;9.678;2023-04-21T02:21:09;41.63;;;25.95;;
29902;SDS011;30288;50.514;9.678;2023-04-21T02:23:15;38.05;;;25.15;;
29902;SDS011;30288;50.514;9.678;2023-04-21T02:25:21;39.25;;;24.73;;
29902;SDS011;30288;50.514;9.678;2023-04-21T02:27:26;38.50;;;22.85;;
29902;SDS011;30288;50.514;9.678;2023-04-21T02:29:35;42.53;;;26.27;;
29902;SDS011;30288;50.514;9.678;2023-04-21T02:31:41;38.67;;;23.70;;
29902;SDS011;30288;50.514;9.678;2023-04-21T02:34:04;40.78;;;23.42;;
29902;SDS011;30288;50.514;9.678;2023-04-21T02:36:11;40.03;;;25.48;;
29902;SDS011;30288;50.514;9.678;2023-04-21T02:38:17;38.72;;;24.35;;
29902;SDS011;30288;50.514;9.678;2023-04-21T02:40:22;37.55;;;23.05;;
29902;SDS011;30288;50.514;9.678;2023-04-21T02:42:27;40.50;;;25.23;;
29902;SDS011;30288;50.514;9.678;2023-04-21T02:44:32;40.70;;;25.30;;
29902;SDS011;30288;50.514;9.678;2023-04-21T02:46:40;47.05;;;24.30;;
29902;SDS011;30288;50.514;9.678;2023-04-21T02:48:47;39.05;;;24.30;;
29902;SDS011;30288;50.514;9.678;2023-04-21T02:50:52;40.17;;;23.30;;
29902;SDS011;30288;50.514;9.678;2023-04-21T02:52:58;36.92;;;22.98;;
29902;SDS011;30288;50.514;9.678;2023-04-21T02:55:03;34.70;;;23.02;;
29902;SDS011;30288;50.514;9.678;2023-04-21T02:57:10;39.28;;;24.23;;
29902;SDS011;30288;50.514;9.678;2023-04-21T02:59:15;38.25;;;22.85;;
29902;SDS011;30288;50.514;9.678;2023-04-21T03:01:23;37.67;;;23.33;;
29902;SDS011;30288;50.514;9.678;2023-04-21T03:03:28;40.63;;;24.00;;
29902;SDS011;30288;50.514;9.678;2023-04-21T03:05:35;38.92;;;25.48;;
29902;SDS011;30288;50.514;9.678;2023-04-21T03:07:40;43.42;;;25.55;;
29902;SDS011;30288;50.514;9.678;2023-04-21T03:09:45;41.33;;;25.90;;
29902;SDS011;30288;50.514;9.678;2023-04-21T03:11:51;37.97;;;23.60;;
29902;SDS011;30288;50.514;9.678;2023-04-21T03:13:56;48.55;;;28.88;;
29902;SDS011;30288;50.514;9.678;2023-04-21T03:16:02;41.70;;;24.55;;
29902;SDS011;30288;50.514;9.678;2023-04-21T03:18:11;43.80;;;26.48;;
29902;SDS011;30288;50.514;9.678;2023-04-21T03:20:17;39.25;;;24.73;;
29902;SDS011;30288;50.514;9.678;2023-04-21T03:22:22;41.63;;;25.83;;
29902;SDS011;30288;50.514;9.678;2023-04-21T03:24:27;43.85;;;27.17;;
29902;SDS011;30288;50.514;9.678;2023-04-21T03:26:32;44.08;;;26.88;;
29902;SDS011;30288;50.514;9.678;2023-04-21T03:28:37;45.65;;;28.10;;
29902;SDS011;30288;50.514;9.678;2023-04-21T03:30:43;44.80;;;27.70;;
29902;SDS011;30288;50.514;9.678;2023-04-21T03:32:48;41.67;;;26.50;;
29902;SDS011;30288;50.514;9.678;2023-04-21T03:34:56;44.75;;;26.05;;
29902;SDS011;30288;50.514;9.678;2023-04-21T03:37:02;46.53;;;27.10;;
29902;SDS011;30288;50.514;9.678;2023-04-21T03:39:07;45.55;;;28.50;;
29902;SDS011;30288;50.514;9.678;2023-04-21T03:41:21;49.60;;;28.25;;
29902;SDS011;30288;50.514;9.678;2023-04-21T03:43:26;43.25;;;27.35;;
29902;SDS011;30288;50.514;9.678;2023-04-21T03:45:33;42.55;;;26.73;;
29902;SDS011;30288;50.514;9.678;2023-04-21T03:47:39;44.33;;;28.50;;
29902;SDS011;30288;50.514;9.678;2023-04-21T03:49:44;44.47;;;27.35;;
29902;SDS011;30288;50.514;9.678;2023-04-21T03:51:52;40.50;;;25.92;;
29902;SDS011;30288;50.514;9.678;2023-04-21T03:53:57;42.53;;;26.25;;
29902;SDS011;30288;50.514;9.678;2023-04-21T03:56:02;45.47;;;27.80;;
29902;SDS011;30288;50.514;9.678;2023-04-21T03:58:08;38.97;;;24.67;;
29902;SDS011;30288;50.514;9.678;2023-04-21T04:00:14;42.75;;;26.92;;
29902;SDS011;30288;50.514;9.678;2023-04-21T04:02:19;44.40;;;28.83;;
29902;SDS011;30288;50.514;9.678;2023-04-21T04:04:24;41.95;;;26.08;;
29902;SDS011;30288;50.514;9.678;2023-04-21T04:06:29;41.85;;;27.02;;
29902;SDS011;30288;50.514;9.678;2023-04-21T04:08:38;41.28;;;27.15;;
29902;SDS011;30288;50.514;9.678;2023-04-21T04:10:44;48.40;;;28.55;;
29902;SDS011;30288;50.514;9.678;2023-04-21T04:12:49;45.42;;;26.13;;
29902;SDS011;30288;50.514;9.678;2023-04-21T04:14:55;45.88;;;28.85;;
29902;SDS011;30288;50.514;9.678;2023-04-21T04:17:00;47.75;;;28.48;;
29902;SDS011;30288;50.514;9.678;2023-04-21T04:19:05;44.85;;;28.85;;
29902;SDS011;30288;50.514;9.678;2023-04-21T04:21:11;47.97;;;28.85;;
29902;SDS011;30288;50.514;9.678;2023-04-21T04:23:16;51.75;;;30.60;;
29902;SDS011;30288;50.514;9.678;2023-04-21T04:25:24;50.22;;;27.95;;
29902;SDS011;30288;50.514;9.678;2023-04-21T04:27:30;50.03;;;31.27;;
29902;SDS011;30288;50.514;9.678;2023-04-21T04:29:35;43.97;;;28.17;;
29902;SDS011;30288;50.514;9.678;2023-04-21T04:31:40;45.75;;;29.15;;
29902;SDS011;30288;50.514;9.678;2023-04-21T04:33:45;46.88;;;30.08;;
29902;SDS011;30288;50.514;9.678;2023-04-21T04:35:53;43.55;;;27.58;;
29902;SDS011;30288;50.514;9.678;2023-04-21T04:37:58;50.95;;;29.52;;
29902;SDS011;30288;50.514;9.678;2023-04-21T04:40:05;42.90;;;26.33;;
29902;SDS011;30288;50.514;9.678;2023-04-21T04:42:16;45.22;;;27.80;;
29902;SDS011;30288;50.514;9.678;2023-04-21T04:44:21;39.03;;;24.60;;
29902;SDS011;30288;50.514;9.678;2023-04-21T04:46:26;41.15;;;25.88;;
29902;SDS011;30288;50.514;9.678;2023-04-21T04:48:31;41.33;;;25.23;;
29902;SDS011;30288;50.514;9.678;2023-04-21T04:50:36;39.97;;;24.35;;
29902;SDS011;30288;50.514;9.678;2023-04-21T04:52:41;38.40;;;24.20;;
29902;SDS011;30288;50.514;9.678;2023-04-21T04:54:47;37.30;;;23.85;;
29902;SDS011;30288;50.514;9.678;2023-04-21T04:56:53;40.13;;;26.33;;
29902;SDS011;30288;50.514;9.678;2023-04-21T04:59:00;40.13;;;25.90;;
29902;SDS011;30288;50.514;9.678;2023-04-21T05:01:15;38.50;;;24.13;;
29902;SDS011;30288;50.514;9.678;2023-04-21T05:03:20;38.42;;;23.48;;
29902;SDS011;30288;50.514;9.678;2023-04-21T05:05:26;39.70;;;23.50;;
29902;SDS011;30288;50.514;9.678;2023-04-21T05:07:31;40.10;;;24.00;;
29902;SDS011;30288;50.514;9.678;2023-04-21T05:09:36;36.88;;;23.15;;
29902;SDS011;30288;50.514;9.678;2023-04-21T05:11:42;36.78;;;22.55;;
29902;SDS011;30288;50.514;9.678;2023-04-21T05:13:47;40.90;;;25.55;;
29902;SDS011;30288;50.514;9.678;2023-04-21T05:15:58;38.78;;;24.70;;
29902;SDS011;30288;50.514;9.678;2023-04-21T05:18:04;39.90;;;24.60;;
29902;SDS011;30288;50.514;9.678;2023-04-21T05:20:10;34.97;;;22.58;;
29902;SDS011;30288;50.514;9.678;2023-04-21T05:22:15;43.83;;;26.08;;
29902;SDS011;30288;50.514;9.678;2023-04-21T05:24:20;39.00;;;25.88;;
29902;SDS011;30288;50.514;9.678;2023-04-21T05:26:26;38.25;;;23.35;;
29902;SDS011;30288;50.514;9.678;2023-04-21T05:28:32;38.17;;;25.30;;
29902;SDS011;30288;50.514;9.678;2023-04-21T05:30:37;43.33;;;24.83;;
29902;SDS011;30288;50.514;9.678;2023-04-21T05:32:45;36.60;;;24.25;;
29902;SDS011;30288;50.514;9.678;2023-04-21T05:34:51;36.22;;;24.17;;
29902;SDS011;30288;50.514;9.678;2023-04-21T05:36:56;37.28;;;23.95;;
29902;SDS011;30288;50.514;9.678;2023-04-21T05:39:01;41.65;;;26.13;;
29902;SDS011;30288;50.514;9.678;2023-04-21T05:41:07;39.67;;;26.17;;
29902;SDS011;30288;50.514;9.678;2023-04-21T05:43:12;42.08;;;26.08;;
29902;SDS011;30288;50.514;9.678;2023-04-21T05:45:17;40.90;;;25.88;;
29902;SDS011;30288;50.514;9.678;2023-04-21T05:47:22;42.97;;;26.60;;
29902;SDS011;30288;50.514;9.678;2023-04-21T05:49:30;40.60;;;26.42;;
29902;SDS011;30288;50.514;9.678;2023-04-21T05:51:35;44.03;;;28.58;;
29902;SDS011;30288;50.514;9.678;2023-04-21T05:53:41;45.78;;;28.08;;
29902;SDS011;30288;50.514;9.678;2023-04-21T05:55:49;42.55;;;25.50;;
29902;SDS011;30288;50.514;9.678;2023-04-21T05:57:55;43.63;;;28.58;;
29902;SDS011;30288;50.514;9.678;2023-04-21T06:00:00;43.42;;;28.23;;
29902;SDS011;30288;50.514;9.678;2023-04-21T06:02:05;47.58;;;28.05;;
29902;SDS011;30288;50.514;9.678;2023-04-21T06:04:11;41.90;;;27.17;;
29902;SDS011;30288;50.514;9.678;2023-04-21T06:06:19;43.40;;;27.20;;
29902;SDS011;30288;50.514;9.678;2023-04-21T06:08:24;43.42;;;26.05;;
29902;SDS011;30288;50.514;9.678;2023-04-21T06:10:30;46.65;;;27.85;;
29902;SDS011;30288;50.514;9.678;2023-04-21T06:12:35;45.08;;;27.63;;
29902;SDS011;30288;50.514;9.678;2023-04-21T06:14:40;40.55;;;26.88;;
29902;SDS011;30288;50.514;9.678;2023-04-21T06:16:45;46.00;;;27.60;;
29902;SDS011;30288;50.514;9.678;2023-04-21T06:18:51;44.95;;;26.83;;
29902;SDS011;30288;50.514;9.678;2023-04-21T06:20:56;39.95;;;27.40;;
29902;SDS011;30288;50.514;9.678;2023-04-21T06:23:04;40.08;;;26.02;;
29902;SDS011;30288;50.514;9.678;2023-04-21T06:25:09;43.80;;;28.30;;
29902;SDS011;30288;50.514;9.678;2023-04-21T06:27:15;45.33;;;26.90;;
29902;SDS011;30288;50.514;9.678;2023-04-21T06:29:20;45.10;;;28.02;;
29902;SDS011;30288;50.514;9.678;2023-04-21T06:31:26;41.72;;;26.48;;
29902;SDS011;30288;50.514;9.678;2023-04-21T06:33:31;43.42;;;27.90;;
29902;SDS011;30288;50.514;9.678;2023-04-21T06:35:36;43.30;;;28.75;;
29902;SDS011;30288;50.514;9.678;2023-04-21T06:37:41;45.22;;;29.77;;
29902;SDS011;30288;50.514;9.678;2023-04-21T06:39:49;43.33;;;28.25;;
29902;SDS011;30288;50.514;9.678;2023-04-21T06:41:54;39.80;;;27.17;;
29902;SDS011;30288;50.514;9.678;2023-04-21T06:44:00;43.80;;;27.58;;
29902;SDS011;30288;50.514;9.678;2023-04-21T06:46:06;42.17;;;27.55;;
29902;SDS011;30288;50.514;9.678;2023-04-21T06:48:11;43.85;;;28.38;;
29902;SDS011;30288;50.514;9.678;2023-04-21T06:50:17;42.78;;;27.00;;
29902;SDS011;30288;50.514;9.678;2023-04-21T06:52:22;37.65;;;25.67;;
29902;SDS011;30288;50.514;9.678;2023-04-21T06:54:27;37.13;;;25.23;;
29902;SDS011;30288;50.514;9.678;2023-04-21T06:56:35;37.90;;;24.25;;
29902;SDS011;30288;50.514;9.678;2023-04-21T06:58:42;43.10;;;25.48;;
29902;SDS011;30288;50.514;9.678;2023-04-21T07:00:47;34.05;;;23.73;;
29902;SDS011;30288;50.514;9.678;2023-04-21T07:02:52;36.08;;;24.17;;
29902;SDS011;30288;50.514;9.678;2023-04-21T07:04:58;36.50;;;24.25;;
29902;SDS011;30288;50.514;9.678;2023-04-21T07:07:03;35.42;;;24.17;;
29902;SDS011;30288;50.514;9.678;2023-04-21T07:09:08;36.03;;;23.73;;
29902;SDS011;30288;50.514;9.678;2023-04-21T07:11:13;37.72;;;25.67;;
29902;SDS011;30288;50.514;9.678;2023-04-21T07:13:21;36.40;;;23.40;;
29902;SDS011;30288;50.514;9.678;2023-04-21T07:15:26;35.38;;;24.45;;
29902;SDS011;30288;50.514;9.678;2023-04-21T07:17:31;33.05;;;23.60;;
29902;SDS011;30288;50.514;9.678;2023-04-21T07:19:36;36.17;;;23.40;;
29902;SDS011;30288;50.514;9.678;2023-04-21T07:21:41;33.92;;;24.17;;
29902;SDS011;30288;50.514;9.678;2023-04-21T07:23:46;31.13;;;21.08;;
29902;SDS011;30288;50.514;9.678;2023-04-21T07:25:51;34.83;;;21.92;;
29902;SDS011;30288;50.514;9.678;2023-04-21T07:27:56;31.85;;;21.65;;
29902;SDS011;30288;50.514;9.678;2023-04-21T07:30:06;31.42;;;21.52;;
29902;SDS011;30288;50.514;9.678;2023-04-21T07:32:12;28.70;;;20.45;;
29902;SDS011;30288;50.514;9.678;2023-04-21T07:34:17;33.90;;;22.98;;
29902;SDS011;30288;50.514;9.678;2023-04-21T07:36:22;38.22;;;23.38;;
29902;SDS011;30288;50.514;9.678;2023-04-21T07:38:31;29.67;;;21.17;;
29902;SDS011;30288;50.514;9.678;2023-04-21T07:40:36;30.75;;;20.55;;
29902;SDS011;30288;50.514;9.678;2023-04-21T07:42:41;30.13;;;20.38;;
29902;SDS011;30288;50.514;9.678;2023-04-21T07:44:46;28.83;;;19.15;;
29902;SDS011;30288;50.514;9.678;2023-04-21T07:46:54;31.25;;;20.63;;
29902;SDS011;30288;50.514;9.678;2023-04-21T07:48:59;26.60;;;19.13;;
29902;SDS011;30288;50.514;9.678;2023-04-21T07:51:04;29.42;;;17.98;;
29902;SDS011;30288;50.514;9.678;2023-04-21T07:53:09;26.23;;;18.30;;
29902;SDS011;30288;50.514;9.678;2023-04-21T07:55:15;28.27;;;17.65;;
29902;SDS011;30288;50.514;9.678;2023-04-21T07:57:20;23.15;;;15.80;;
29902;SDS011;30288;50.514;9.678;2023-04-21T07:59:25;28.50;;;18.08;;
29902;SDS011;30288;50.514;9.678;2023-04-21T08:01:30;23.40;;;15.98;;
29902;SDS011;30288;50.514;9.678;2023-04-21T08:03:38;23.75;;;15.32;;
29902;SDS011;30288;50.514;9.678;2023-04-21T08:05:43;30.67;;;17.33;;
29902;SDS011;30288;50.514;9.678;2023-04-21T08:07:49;23.55;;;14.60;;
29902;SDS011;30288;50.514;9.678;2023-04-21T08:09:54;20.73;;;13.65;;
29902;SDS011;30288;50.514;9.678;2023-04-21T08:11:59;29.70;;;15.98;;
29902;SDS011;30288;50.514;9.678;2023-04-21T08:14:04;23.40;;;14.80;;
29902;SDS011;30288;50.514;9.678;2023-04-21T08:16:10;36.15;;;18.05;;
29902;SDS011;30288;50.514;9.678;2023-04-21T08:18:15;23.00;;;14.48;;
29902;SDS011;30288;50.514;9.678;2023-04-21T08:20:25;22.50;;;14.43;;
29902;SDS011;30288;50.514;9.678;2023-04-21T08:22:30;25.98;;;14.07;;
29902;SDS011;30288;50.514;9.678;2023-04-21T08:24:37;21.35;;;14.68;;
29902;SDS011;30288;50.514;9.678;2023-04-21T08:26:42;24.60;;;14.07;;
29902;SDS011;30288;50.514;9.678;2023-04-21T08:28:48;25.88;;;13.93;;
29902;SDS011;30288;50.514;9.678;2023-04-21T08:30:53;16.92;;;12.00;;
29902;SDS011;30288;50.514;9.678;2023-04-21T08:32:58;15.88;;;10.52;;
29902;SDS011;30288;50.514;9.678;2023-04-21T08:35:04;18.63;;;10.80;;
29902;SDS011;30288;50.514;9.678;2023-04-21T08:37:13;17.65;;;10.23;;
29902;SDS011;30288;50.514;9.678;2023-04-21T08:39:18;19.90;;;11.88;;
29902;SDS011;30288;50.514;9.678;2023-04-21T08:41:24;14.70;;;9.98;;
29902;SDS011;30288;50.514;9.678;2023-04-21T08:43:29;19.27;;;10.63;;
29902;SDS011;30288;50.514;9.678;2023-04-21T08:45:35;13.60;;;9.95;;
29902;SDS011;30288;50.514;9.678;2023-04-21T08:47:40;15.07;;;10.20;;
29902;SDS011;30288;50.514;9.678;2023-04-21T08:49:45;14.63;;;8.98;;
29902;SDS011;30288;50.514;9.678;2023-04-21T08:51:54;14.75;;;8.80;;
29902;SDS011;30288;50.514;9.678;2023-04-21T08:54:02;11.73;;;8.48;;
29902;SDS011;30288;50.514;9.678;2023-04-21T08:56:08;13.65;;;8.40;;
29902;SDS011;30288;50.514;9.678;2023-04-21T08:58:13;13.93;;;9.02;;
29902;SDS011;30288;50.514;9.678;2023-04-21T09:00:19;13.85;;;8.55;;
29902;SDS011;30288;50.514;9.678;2023-04-21T09:02:25;12.75;;;7.93;;
29902;SDS011;30288;50.514;9.678;2023-04-21T09:04:31;17.08;;;8.05;;
29902;SDS011;30288;50.514;9.678;2023-04-21T09:06:39;18.00;;;8.68;;
29902;SDS011;30288;50.514;9.678;2023-04-21T09:08:51;12.93;;;7.13;;
29902;SDS011;30288;50.514;9.678;2023-04-21T09:11:01;11.25;;;7.30;;
29902;SDS011;30288;50.514;9.678;2023-04-21T09:13:06;13.38;;;8.00;;
29902;SDS011;30288;50.514;9.678;2023-04-21T09:15:12;12.85;;;7.45;;
29902;SDS011;30288;50.514;9.678;2023-04-21T09:17:17;11.65;;;6.93;;
29902;SDS011;30288;50.514;9.678;2023-04-21T09:19:25;11.82;;;7.25;;
29902;SDS011;30288;50.514;9.678;2023-04-21T09:21:30;13.70;;;6.78;;
29902;SDS011;30288;50.514;9.678;2023-04-21T09:23:42;12.63;;;7.50;;
29902;SDS011;30288;50.514;9.678;2023-04-21T09:25:49;13.18;;;7.57;;
29902;SDS011;30288;50.514;9.678;2023-04-21T09:27:57;11.18;;;7.10;;
29902;SDS011;30288;50.514;9.678;2023-04-21T09:30:05;14.05;;;7.13;;
29902;SDS011;30288;50.514;9.678;2023-04-21T09:32:15;10.38;;;7.18;;
29902;SDS011;30288;50.514;9.678;2023-04-21T09:34:22;11.07;;;7.30;;
29902;SDS011;30288;50.514;9.678;2023-04-21T09:36:29;11.00;;;7.10;;
29902;SDS011;30288;50.514;9.678;2023-04-21T09:38:35;12.27;;;6.78;;
29902;SDS011;30288;50.514;9.678;2023-04-21T09:40:40;11.45;;;7.22;;
29902;SDS011;30288;50.514;9.678;2023-04-21T09:42:46;10.70;;;7.70;;
29902;SDS011;30288;50.514;9.678;2023-04-21T09:44:53;14.48;;;8.27;;
29902;SDS011;30288;50.514;9.678;2023-04-21T09:47:18;10.60;;;7.45;;
29902;SDS011;30288;50.514;9.678;2023-04-21T09:49:24;11.73;;;7.78;;
29902;SDS011;30288;50.514;9.678;2023-04-21T09:51:34;12.48;;;7.18;;
29902;SDS011;30288;50.514;9.678;2023-04-21T09:54:02;10.60;;;7.47;;
29902;SDS011;30288;50.514;9.678;2023-04-21T09:56:30;15.27;;;8.15;;
29902;SDS011;30288;50.514;9.678;2023-04-21T09:58:40;11.65;;;7.57;;
29902;SDS011;30288;50.514;9.678;2023-04-21T10:00:53;11.25;;;6.85;;
29902;SDS011;30288;50.514;9.678;2023-04-21T10:03:00;15.20;;;7.63;;
29902;SDS011;30288;50.514;9.678;2023-04-21T10:05:12;12.13;;;7.70;;
29902;SDS011;30288;50.514;9.678;2023-04-21T10:07:17;9.70;;;6.70;;
29902;SDS011;30288;50.514;9.678;2023-04-21T10:09:22;16.95;;;6.93;;
29902;SDS011;30288;50.514;9.678;2023-04-21T10:11:30;10.35;;;7.15;;
29902;SDS011;30288;50.514;9.678;2023-04-21T10:13:36;12.02;;;6.93;;
29902;SDS011;30288;50.514;9.678;2023-04-21T10:15:43;11.23;;;6.63;;
29902;SDS011;30288;50.514;9.678;2023-04-21T10:17:51;10.60;;;6.45;;
29902;SDS011;30288;50.514;9.678;2023-04-21T10:19:56;10.90;;;6.53;;
29902;SDS011;30288;50.514;9.678;2023-04-21T10:22:01;10.45;;;6.15;;
29902;SDS011;30288;50.514;9.678;2023-04-21T10:24:09;11.48;;;6.50;;
29902;SDS011;30288;50.514;9.678;2023-04-21T10:26:18;10.68;;;6.38;;
29902;SDS011;30288;50.514;9.678;2023-04-21T10:28:37;9.82;;;6.40;;
29902;SDS011;30288;50.514;9.678;2023-04-21T10:30:51;9.13;;;6.15;;
29902;SDS011;30288;50.514;9.678;2023-04-21T10:33:35;16.52;;;7.10;;
29902;SDS011;30288;50.514;9.678;2023-04-21T10:35:56;9.15;;;6.38;;
29902;SDS011;30288;50.514;9.678;2023-04-21T10:38:05;11.45;;;5.35;;
29902;SDS011;30288;50.514;9.678;2023-04-21T10:42:42;10.38;;;5.82;;
29902;SDS011;30288;50.514;9.678;2023-04-21T10:44:51;8.60;;;6.05;;
29902;SDS011;30288;50.514;9.678;2023-04-21T10:47:08;10.20;;;6.35;;
29902;SDS011;30288;50.514;9.678;2023-04-21T10:49:22;8.23;;;5.47;;
29902;SDS011;30288;50.514;9.678;2023-04-21T10:51:30;10.30;;;6.28;;
29902;SDS011;30288;50.514;9.678;2023-04-21T10:53:41;10.50;;;5.40;;
29902;SDS011;30288;50.514;9.678;2023-04-21T10:55:47;9.38;;;5.10;;
29902;SDS011;30288;50.514;9.678;2023-04-21T10:57:52;9.18;;;5.32;;
29902;SDS011;30288;50.514;9.678;2023-04-21T10:59:59;8.93;;;5.03;;
29902;SDS011;30288;50.514;9.678;2023-04-21T11:02:07;10.05;;;5.38;;
29902;SDS011;30288;50.514;9.678;2023-04-21T11:04:16;19.45;;;6.63;;
29902;SDS011;30288;50.514;9.678;2023-04-21T11:06:27;8.25;;;5.15;;
29902;SDS011;30288;50.514;9.678;2023-04-21T11:08:33;9.40;;;5.22;;
29902;SDS011;30288;50.514;9.678;2023-04-21T11:10:45;9.02;;;5.18;;
29902;SDS011;30288;50.514;9.678;2023-04-21T11:12:56;10.23;;;5.30;;
29902;SDS011;30288;50.514;9.678;2023-04-21T11:15:02;9.30;;;5.07;;
29902;SDS011;30288;50.514;9.678;2023-04-21T11:17:11;9.27;;;4.68;;
29902;SDS011;30288;50.514;9.678;2023-04-21T11:19:18;9.45;;;4.97;;
29902;SDS011;30288;50.514;9.678;2023-04-21T11:21:28;8.90;;;5.22;;
29902;SDS011;30288;50.514;9.678;2023-04-21T11:23:33;9.63;;;5.28;;
29902;SDS011;30288;50.514;9.678;2023-04-21T11:25:38;9.65;;;5.47;;
29902;SDS011;30288;50.514;9.678;2023-04-21T11:27:51;10.23;;;5.18;;
29902;SDS011;30288;50.514;9.678;2023-04-21T11:30:01;9.85;;;5.30;;
29902;SDS011;30288;50.514;9.678;2023-04-21T11:32:08;10.70;;;5.35;;
29902;SDS011;30288;50.514;9.678;2023-04-21T11:34:14;8.43;;;5.22;;
29902;SDS011;30288;50.514;9.678;2023-04-21T11:36:20;9.90;;;4.72;;
29902;SDS011;30288;50.514;9.678;2023-04-21T11:38:32;9.35;;;4.70;;
29902;SDS011;30288;50.514;9.678;2023-04-21T11:40:45;7.40;;;4.90;;
29902;SDS011;30288;50.514;9.678;2023-04-21T11:42:51;10.52;;;5.03;;
29902;SDS011;30288;50.514;9.678;2023-04-21T11:44:57;9.82;;;5.03;;
29902;SDS011;30288;50.514;9.678;2023-04-21T11:47:12;10.65;;;5.68;;
29902;SDS011;30288;50.514;9.678;2023-04-21T11:49:18;8.88;;;5.28;;
29902;SDS011;30288;50.514;9.678;2023-04-21T11:51:33;10.82;;;6.22;;
29902;SDS011;30288;50.514;9.678;2023-04-21T11:53:42;9.60;;;5.55;;
29902;SDS011;30288;50.514;9.678;2023-04-21T11:55:50;9.48;;;4.82;;
29902;SDS011;30288;50.514;9.678;2023-04-21T11:57:57;8.80;;;4.90;;
29902;SDS011;30288;50.514;9.678;2023-04-21T12:00:04;11.07;;;6.13;;
29902;SDS011;30288;50.514;9.678;2023-04-21T12:02:19;14.57;;;6.28;;
29902;SDS011;30288;50.514;9.678;2023-04-21T12:04:27;12.45;;;5.95;;
29902;SDS011;30288;50.514;9.678;2023-04-21T12:06:36;11.55;;;5.22;;
29902;SDS011;30288;50.514;9.678;2023-04-21T12:08:43;8.15;;;5.03;;
29902;SDS011;30288;50.514;9.678;2023-04-21T12:10:48;9.52;;;5.05;;
29902;SDS011;30288;50.514;9.678;2023-04-21T12:12:54;10.52;;;4.90;;
29902;SDS011;30288;50.514;9.678;2023-04-21T12:15:00;8.20;;;4.47;;
29902;SDS011;30288;50.514;9.678;2023-04-21T12:17:05;9.30;;;5.05;;
29902;SDS011;30288;50.514;9.678;2023-04-21T12:19:10;9.13;;;4.30;;
29902;SDS011;30288;50.514;9.678;2023-04-21T12:21:27;8.07;;;4.18;;
29902;SDS011;30288;50.514;9.678;2023-04-21T12:23:33;9.45;;;4.75;;
29902;SDS011;30288;50.514;9.678;2023-04-21T12:25:42;8.70;;;4.47;;
29902;SDS011;30288;50.514;9.678;2023-04-21T12:27:48;9.98;;;4.35;;